Data for 07/07/2007

Time Sea-Level Adjusted Pressure Absolute Pressure Temperature Relative Humidity Dew Point   
(mb) (inHg) (mb) (inHg) (C) (F) (%) (C) (F)
00:05 1019 30.09 848 25.04 22 71.7 45 9.9 49.8
00:10 1019 30.09 848 25.04 21.8 71.2 47 10.1 50.2
00:15 1019 30.09 848 25.04 21.4 70.5 49 10.4 50.8
00:20 1019 30.09 848 25.04 21.2 70.2 51 10.8 51.4
00:25 1019 30.09 848 25.04 20.7 69.2 53 10.9 51.7
00:30 1019 30.09 848 25.04 20.5 68.8 51 10.2 50.4
00:35 1019 30.09 848 25.04 21 69.9 49 10.1 50.2
00:40 1019 30.09 848 25.04 21.6 70.9 46 9.5 49.2
00:45 1019 30.09 848 25.04 21.7 71 43 8.8 47.9
00:50 1019 30.09 848 25.04 22 71.5 42 8.8 47.8
00:55 1019 30.09 848 25.04 22.1 71.7 42 8.8 47.9
01:00 1019 30.09 848 25.04 22.3 72.1 40 8.2 46.7
01:05 1019 30.09 848 25.04 22.4 72.3 42 9.1 48.4
01:10 1019 30.09 848 25.04 22.1 71.8 43 9.3 48.7
01:15 1019 30.09 848 25.04 22.1 71.9 41 8.5 47.2
01:20 1019 30.09 848 25.04 22.6 72.7 38 7.9 46.2
01:25 1019 30.09 848 25.04 23.1 73.5 36 7.2 45
01:30 1019 30.09 848 25.04 23.5 74.2 36 7.7 45.9
01:35 1019 30.09 848 25.04 23.2 73.7 37 7.8 46.1
01:40 1019 30.09 848 25.04 23.2 73.8 40 8.9 48.1
01:45 1019 30.09 848 25.04 23.1 73.7 39 8.7 47.7
01:50 1019 30.09 848 25.04 22.8 73.1 40 8.9 47.9
01:55 1019 30.09 848 25.04 22.3 72.1 42 8.8 47.8
02:00 1018 30.06 848 25.04 21.9 71.4 44 9.2 48.5
02:05 1018 30.06 847 25.01 21.7 71 43 8.8 47.9
02:10 1018 30.06 847 25.01 21.7 71 44 9 48.3
02:15 1018 30.06 847 25.01 21.5 70.6 43 8.7 47.6
02:20 1018 30.06 847 25.01 21.6 70.8 42 8.4 47.2
02:25 1018 30.06 847 25.01 21.7 71.1 43 8.8 47.8
02:30 1018 30.06 847 25.01 21.6 70.8 44 8.9 47.9
02:35 1018 30.06 847 25.01 21.4 70.4 42 8.2 46.8
02:40 1018 30.06 847 25.01 21.6 70.8 42 8.1 46.6
02:45 1018 30.06 847 25.01 21.7 71.1 42 8.6 47.5
02:50 1018 30.06 848 25.04 21.6 70.9 45 9.2 48.5
02:55 1018 30.06 847 25.01 21.4 70.4 43 8.3 47
03:00 1018 30.06 847 25.01 21.5 70.7 44 8.8 47.8
03:05 1018 30.06 847 25.01 21.5 70.7 45 9.3 48.8
03:10 1018 30.06 847 25.01 21.3 70.3 46 9.2 48.6
03:15 1018 30.06 847 25.01 21.2 70.2 44 8.5 47.3
03:20 1018 30.06 847 25.01 21 69.8 48 9.7 49.5
03:25 1018 30.06 847 25.01 20.8 69.4 50 10.2 50.4
03:30 1018 30.06 847 25.01 20.5 68.8 51 10 50.1
03:35 1018 30.06 847 25.01 19.7 67.5 52 9.9 49.8
03:40 1018 30.06 847 25.01 19.3 66.8 54 9.9 49.7
03:45 1018 30.06 847 25.01 19.2 66.5 54 9.7 49.5
03:50 1018 30.06 847 25.01 19.4 66.9 50 9 48.2
03:55 1018 30.06 847 25.01 19.8 67.6 48 8.5 47.2
04:00 1018 30.06 847 25.01 20 68 53 10.1 50.2
04:05 1018 30.06 847 25.01 19.6 67.2 54 10.1 50.1
04:10 1018 30.06 847 25.01 19.3 66.7 52 9.2 48.6
04:15 1018 30.06 847 25.01 19.5 67 55 10.2 50.4
04:20 1018 30.06 847 25.01 19.1 66.3 56 10.2 50.3
04:25 1018 30.06 847 25.01 18.8 65.8 55 9.7 49.4
04:30 1018 30.06 847 25.01 18.9 66.1 51 8.8 47.9
04:35 1018 30.06 847 25.01 19.3 66.8 51 9.2 48.5
04:40 1018 30.06 847 25.01 19.1 66.4 52 9.2 48.6
04:45 1018 30.06 847 25.01 18.7 65.7 55 9.6 49.3
04:50 1018 30.06 847 25.01 19 66.3 51 8.7 47.7
04:55 1018 30.06 847 25.01 19.6 67.2 49 8.6 47.6
05:00 1018 30.06 847 25.01 19.4 67 50 8.9 48.1
05:05 1018 30.06 847 25.01 19.2 66.6 51 8.9 48
05:10 1018 30.06 847 25.01 19 66.2 50 8.4 47.1
05:15 1018 30.06 847 25.01 19.1 66.5 50 8.7 47.7
05:20 1018 30.06 847 25.01 19 66.2 51 8.7 47.7
05:25 1018 30.06 847 25.01 18.8 65.8 51 8.6 47.5
05:30 1018 30.06 847 25.01 18.5 65.4 52 8.6 47.5
05:35 1018 30.06 847 25.01 18.7 65.7 49 8.1 46.5
05:40 1018 30.06 847 25.01 19.1 66.3 49 8.3 47
05:45 1018 30.06 847 25.01 19.1 66.4 49 8.2 46.7
05:50 1018 30.06 847 25.01 19.1 66.3 49 8.2 46.8
05:55 1018 30.06 847 25.01 19.1 66.4 51 8.9 48.1
06:00 1017 30.03 847 25.01 19.1 66.3 50 8.4 47.2
06:05 1018 30.06 847 25.01 18.9 66.1 51 8.8 47.9
06:10 1018 30.06 847 25.01 18.6 65.4 52 8.8 47.8
06:15 1018 30.06 847 25.01 18.2 64.8 54 8.9 48.1
06:20 1018 30.06 847 25.01 17.8 64.1 56 8.9 48
06:25 1018 30.06 847 25.01 17.8 64.1 55 8.8 47.9
06:30 1018 30.06 847 25.01 17.8 64.1 55 8.8 47.8
06:35 1018 30.06 847 25.01 18 64.4 56 9.3 48.7
06:40 1018 30.06 847 25.01 17.8 64 58 9.6 49.2
06:45 1018 30.06 847 25.01 17.8 64.1 56 9.1 48.5
06:50 1018 30.06 847 25.01 17.8 64.1 55 8.9 47.9
06:55 1018 30.06 847 25.01 18 64.4 54 8.7 47.7
07:00 1018 30.06 847 25.01 18.3 64.9 54 9 48.3
07:05 1018 30.06 847 25.01 18.3 65 53 8.8 47.8
07:10 1018 30.06 847 25.01 18.6 65.4 52 8.6 47.5
07:15 1018 30.06 847 25.01 18.9 65.9 51 8.7 47.7
07:20 1018 30.06 847 25.01 19.2 66.5 53 9.5 49.1
07:25 1018 30.06 847 25.01 19.4 67 52 9.3 48.8
07:30 1018 30.06 847 25.01 19.5 67.2 55 10.2 50.4
07:35 1018 30.06 847 25.01 19.6 67.2 54 10.1 50.2
07:40 1018 30.06 847 25.01 19.4 66.8 58 10.9 51.6
07:45 1018 30.06 847 25.01 19.5 67.1 57 10.8 51.4
07:50 1018 30.06 847 25.01 19.6 67.3 58 11.1 52.1
07:55 1018 30.06 848 25.04 19.5 67.2 57 11 51.7
08:00 1019 30.09 848 25.04 19.6 67.3 56 10.8 51.5
08:05 1019 30.09 848 25.04 19.5 67.1 56 10.6 51.1
08:10 1019 30.09 848 25.04 19.8 67.6 50 9.2 48.6
08:15 1019 30.09 848 25.04 20.3 68.5 49 9.3 48.8
08:20 1019 30.09 848 25.04 20.4 68.7 51 9.9 49.8
08:25 1019 30.09 848 25.04 20.8 69.4 50 10.1 50.1
08:30 1019 30.09 848 25.04 21 69.7 50 10.3 50.5
08:35 1019 30.09 848 25.04 21.2 70.2 50 10.5 50.9
08:40 1019 30.09 848 25.04 21.4 70.4 50 10.6 51.2
08:45 1019 30.09 848 25.04 21.1 69.9 48 9.9 49.8
08:50 1019 30.09 848 25.04 21.5 70.8 45 9.4 48.9
08:55 1019 30.09 848 25.04 21.8 71.3 49 10.7 51.3
09:00 1019 30.09 848 25.04 21.2 70.1 49 10.1 50.2
09:05 1019 30.09 848 25.04 21.3 70.3 46 9.4 48.9
09:10 1019 30.09 848 25.04 21.6 70.8 46 9.4 49
09:15 1019 30.09 848 25.04 21.9 71.5 45 9.8 49.6
09:20 1019 30.09 848 25.04 22.4 72.3 47 10.9 51.6
09:25 1019 30.09 848 25.04 22.7 72.9 44 10.2 50.4
09:30 1019 30.09 848 25.04 23 73.5 42 9.8 49.6
09:35 1019 30.09 848 25.04 23.1 73.5 39 8.7 47.6
09:40 1019 30.09 848 25.04 23.2 73.8 42 9.9 49.8
09:45 1019 30.09 848 25.04 23.3 74 40 9.2 48.6
09:50 1019 30.09 848 25.04 23.3 73.9 43 10.2 50.4
09:55 1019 30.09 848 25.04 23.3 73.9 40 9.1 48.3
10:00 1019 30.09 848 25.04 23.5 74.2 39 9.1 48.3
10:05 1019 30.09 848 25.04 23.1 73.6 43 9.9 49.8
10:10 1019 30.09 848 25.04 23.1 73.6 40 9 48.3
10:15 1019 30.09 848 25.04 23.5 74.2 36 7.6 45.6
10:20 1019 30.09 848 25.04 23.8 74.9 33 6.9 44.5
10:25 1019 30.09 848 25.04 24.3 75.7 37 9.1 48.3
10:30 1019 30.09 848 25.04 24.8 76.7 37 9.5 49.2
10:35 1019 30.09 848 25.04 25.4 77.6 37 9.9 49.9
10:40 1019 30.09 848 25.04 25.6 78.1 37 10.3 50.5
10:45 1019 30.09 848 25.04 26 78.8 37 10.6 51.1
10:50 1019 30.09 848 25.04 26.1 79 40 11.8 53.3
10:55 1019 30.09 848 25.04 25.7 78.2 43 12.5 54.5
11:00 1019 30.09 848 25.04 26 78.8 39 11.3 52.3
11:05 1019 30.09 848 25.04 25.8 78.4 37 10.4 50.6
11:10 1019 30.09 848 25.04 26.1 78.9 36 9.9 49.9
11:15 1019 30.09 848 25.04 26.1 78.9 33 8.8 47.9
11:20 1019 30.09 848 25.04 26.4 79.4 35 10 50
11:25 1019 30.09 848 25.04 26.9 80.5 31 8.8 47.8
11:30 1019 30.09 848 25.04 27.1 80.8 28 7.4 45.3
11:35 1019 30.09 848 25.04 27.4 81.3 30 8.6 47.4
11:40 1019 30.09 848 25.04 27.3 81.1 28 7.6 45.6
11:45 1019 30.09 848 25.04 26.9 80.5 32 8.9 48
11:50 1019 30.09 848 25.04 26.9 80.4 30 8.2 46.8
11:55 1019 30.09 848 25.04 26.8 80.3 30 7.9 46.2
12:00 1019 30.09 848 25.04 27.3 81.2 26 6.6 43.9
12:05 1019 30.09 848 25.04 27.7 81.9 26 6.8 44.2
12:10 1019 30.09 848 25.04 27.8 82.1 27 7.5 45.5
12:15 1019 30.09 848 25.04 28 82.4 26 6.8 44.2
12:20 1019 30.09 848 25.04 28.3 82.9 27 7.8 46
12:25 1019 30.09 848 25.04 28.8 83.8 28 8.5 47.3
12:30 1019 30.09 848 25.04 28 82.5 25 6.7 44.1
12:35 1019 30.09 848 25.04 27.4 81.4 24 5.5 41.9
12:40 1019 30.09 848 25.04 27.7 81.8 25 6.1 43
12:45 1019 30.09 848 25.04 27.9 82.3 27 7.3 45.2
12:50 1019 30.09 848 25.04 27.5 81.4 27 7.2 45
12:55 1019 30.09 848 25.04 27.2 81 26 6.4 43.5
13:00 1018 30.06 848 25.04 26.9 80.3 27 6.6 43.9
13:05 1018 30.06 848 25.04 26.8 80.2 27 6.4 43.5
13:10 1018 30.06 848 25.04 28.4 83 23 5.6 42
13:15 1018 30.06 847 25.01 29 84.2 25 7.1 44.7
13:20 1018 30.06 847 25.01 28.7 83.6 23 5.6 42.2
13:25 1018 30.06 847 25.01 28.8 83.8 24 6.8 44.2
13:30 1018 30.06 847 25.01 30.1 86.2 22 6.2 43.2
13:35 1018 30.06 847 25.01 30.9 87.5 22 6.8 44.3
13:40 1018 30.06 847 25.01 30.7 87.2 22 7.1 44.9
13:45 1018 30.06 847 25.01 30 86 22 6.3 43.4
13:50 1018 30.06 847 25.01 30.2 86.3 23 7.3 45.2
13:55 1018 30.06 847 25.01 30 86 22 6.4 43.5
14:00 1018 30.06 847 25.01 30.8 87.5 21 6.6 44
14:05 1017 30.03 847 25.01 31.7 89.1 20 6.5 43.6
14:10 1017 30.03 847 25.01 31.7 89 20 6.6 43.8
14:15 1017 30.03 846 24.98 30.9 87.7 23 7.6 45.7
14:20 1017 30.03 846 24.98 30.5 86.9 22 6.5 43.7
14:25 1017 30.03 846 24.98 30.1 86.2 22 6.5 43.7
14:30 1017 30.03 846 24.98 30.4 86.7 22 6.3 43.4
14:35 1017 30.03 846 24.98 31.9 89.4 21 7.1 44.9
14:40 1017 30.03 846 24.98 32.3 90.1 21 7.3 45.2
14:45 1017 30.03 846 24.98 31.7 89 21 7.1 44.8
14:50 1017 30.03 846 24.98 31.9 89.4 21 7.5 45.5
14:55 1017 30.03 846 24.98 32.5 90.4 19 6.6 43.9
15:00 1017 30.03 846 24.98 32.2 89.9 21 7.3 45.1
15:05 1017 30.03 846 24.98 31.4 88.6 21 7.2 44.9
15:10 1017 30.03 846 24.98 32.1 89.8 20 6.9 44.3
15:15 1017 30.03 846 24.98 32.9 91.1 20 7.4 45.3
15:20 1017 30.03 846 24.98 31.9 89.3 22 7.9 46.3
15:25 1017 30.03 846 24.98 31.2 88.2 22 7.3 45.1
15:30 1017 30.03 846 24.98 30.9 87.7 23 8 46.5
15:35 1017 30.03 846 24.98 30.6 87 20 5.1 41.1
15:40 1016 30 846 24.98 31.3 88.4 18 4.2 39.6
15:45 1016 30 846 24.98 31.7 89.1 17 4.2 39.5
15:50 1016 30 846 24.98 31.8 89.2 20 6.8 44.2
15:55 1017 30.03 846 24.98 31.8 89.3 21 7.2 45
16:00 1016 30 846 24.98 31.1 88 21 6.8 44.3
16:05 1016 30 846 24.98 31.4 88.5 21 7 44.7
16:10 1016 30 846 24.98 31.5 88.6 19 5.7 42.3
16:15 1016 30 846 24.98 31 87.9 19 5.4 41.7
16:20 1016 30 846 24.98 31 87.8 21 6.6 43.8
16:25 1016 30 846 24.98 31 87.8 24 8.3 46.9
16:30 1016 30 845 24.95 30.8 87.4 22 6.9 44.5
16:35 1016 30 846 24.98 30.7 87.2 25 8.6 47.4
16:40 1016 30 845 24.95 30.3 86.5 23 7.1 44.8
16:45 1016 30 845 24.95 29.8 85.6 25 7.9 46.3
16:50 1016 30 845 24.95 29.1 84.4 29 9.5 49.1
16:55 1016 30 845 24.95 28.9 84 27 8.5 47.2
17:00 1016 30 845 24.95 28.6 83.4 32 10.4 50.8
17:05 1016 30 846 24.98 27.9 82.1 33 10.5 50.8
17:10 1017 30.03 846 24.98 27.4 81.4 37 11.6 52.8
17:15 1017 30.03 846 24.98 26.8 80.2 40 12.2 53.9
17:20 1017 30.03 846 24.98 26.2 79.1 36 10.2 50.4
17:25 1017 30.03 846 24.98 25.2 77.4 39 10.5 50.8
17:30 1017 30.03 846 24.98 24.4 75.9 40 10.1 50.3
17:35 1017 30.03 847 25.01 23.8 74.8 44 10.9 51.7
17:40 1018 30.06 847 25.01 23.7 74.7 46 11.7 53
17:45 1019 30.09 848 25.04 23 73.5 43 9.8 49.7
17:50 1019 30.09 848 25.04 22.1 71.8 47 10.6 51.1
17:55 1019 30.09 848 25.04 21.5 70.7 52 11.4 52.5
18:00 1019 30.09 849 25.07 20.7 69.3 60 12.8 55.1
18:05 1020 30.12 849 25.07 19.9 67.9 63 12.7 54.8
18:10 1020 30.12 849 25.07 19.6 67.3 63 12.4 54.3
18:15 1020 30.12 849 25.07 19.6 67.2 59 11.6 52.8
18:20 1020 30.12 850 25.1 19.7 67.4 60 11.8 53.3
18:25 1021 30.15 850 25.1 19.8 67.6 60 11.9 53.4
18:30 1021 30.15 850 25.1 20 68 59 11.9 53.4
18:35 1021 30.15 850 25.1 20.3 68.6 55 11 51.9
18:40 1021 30.15 850 25.1 20.5 69 55 11.2 52.2
18:45 1021 30.15 850 25.1 20.7 69.2 55 11.3 52.4
18:50 1021 30.15 850 25.1 20.7 69.2 54 11.2 52.1
18:55 1020 30.12 850 25.1 20.7 69.2 55 11.6 52.8
19:00 1020 30.12 849 25.07 20.7 69.2 55 11.4 52.5
19:05 1020 30.12 849 25.07 20.7 69.2 54 11.3 52.3
19:10 1020 30.12 849 25.07 20.6 69 58 12.2 53.9
19:15 1020 30.12 849 25.07 20.2 68.4 58 11.8 53.2
19:20 1019 30.09 849 25.07 20 68 56 11 51.9
19:25 1019 30.09 848 25.04 20.3 68.5 55 11 51.8
19:30 1019 30.09 848 25.04 20.5 68.9 55 11.2 52.2
19:35 1019 30.09 848 25.04 20.2 68.4 56 11.4 52.5
19:40 1019 30.09 848 25.04 20 67.9 57 11.4 52.5
19:45 1019 30.09 848 25.04 19.9 67.9 57 11.2 52.2
19:50 1019 30.09 848 25.04 19.9 67.9 58 11.5 52.7
19:55 1019 30.09 848 25.04 19.9 67.7 58 11.4 52.5
20:00 1019 30.09 848 25.04 19.8 67.6 59 11.7 53
20:05 1019 30.09 848 25.04 19.9 67.7 58 11.5 52.7
20:10 1019 30.09 848 25.04 19.8 67.6 59 11.8 53.2
20:15 1019 30.09 848 25.04 19.7 67.4 59 11.6 52.9
20:20 1019 30.09 848 25.04 19.5 67.1 60 11.7 53
20:25 1019 30.09 848 25.04 19.4 66.9 62 11.9 53.5
20:30 1019 30.09 848 25.04 19.2 66.5 63 12.1 53.8
20:35 1019 30.09 848 25.04 19.2 66.5 62 11.7 53.1
20:40 1019 30.09 848 25.04 19 66.2 62 11.7 53.1
20:45 1019 30.09 849 25.07 18.9 66 62 11.5 52.7
20:50 1019 30.09 848 25.04 18.9 66.1 61 11.4 52.6
20:55 1019 30.09 848 25.04 18.7 65.6 63 11.6 52.9
21:00 1019 30.09 848 25.04 18.5 65.3 66 12 53.7
21:05 1019 30.09 848 25.04 18.4 65.2 67 12.3 54.2
21:10 1019 30.09 848 25.04 18.4 65 68 12.4 54.2
21:15 1019 30.09 848 25.04 18.3 64.9 67 12.1 53.9
21:20 1018 30.06 848 25.04 17.9 64.3 70 12.4 54.3
21:25 1018 30.06 847 25.01 17.6 63.6 69 11.8 53.3
21:30 1018 30.06 847 25.01 17.8 64 67 11.6 52.9
21:35 1018 30.06 847 25.01 17.9 64.1 66 11.4 52.5
21:40 1018 30.06 848 25.04 17.9 64.2 66 11.5 52.6
21:45 1018 30.06 848 25.04 17.7 63.9 63 10.8 51.4
21:50 1018 30.06 848 25.04 18.1 64.6 61 10.5 50.9
21:55 1018 30.06 848 25.04 18.1 64.6 63 11.1 52
22:00 1019 30.09 848 25.04 17.6 63.6 68 11.7 53.1
22:05 1019 30.09 848 25.04 17.3 63.1 67 11.1 52.1
22:10 1019 30.09 848 25.04 17.5 63.4 68 11.6 52.8
22:15 1019 30.09 848 25.04 17.5 63.4 67 11.4 52.5
22:20 1019 30.09 848 25.04 17.5 63.5 67 11.4 52.5
22:25 1019 30.09 848 25.04 17.6 63.6 67 11.5 52.7
22:30 1019 30.09 848 25.04 17.5 63.5 69 11.8 53.2
22:35 1019 30.09 848 25.04 17.3 63.2 70 11.9 53.4
22:40 1019 30.09 848 25.04 17.3 63.1 69 11.5 52.8
22:45 1019 30.09 848 25.04 17.4 63.3 68 11.5 52.7
22:50 1019 30.09 848 25.04 17.4 63.4 68 11.6 52.9
22:55 1019 30.09 848 25.04 17.4 63.3 69 11.6 52.9
23:00 1019 30.09 848 25.04 17.4 63.2 69 11.7 53
23:05 1019 30.09 848 25.04 17.3 63.2 68 11.5 52.7
23:10 1019 30.09 848 25.04 17.4 63.4 69 11.7 53
23:15 1019 30.09 848 25.04 17.6 63.6 66 11.3 52.3
23:20 1019 30.09 848 25.04 17.6 63.6 67 11.6 52.8
23:25 1019 30.09 848 25.04 17.5 63.5 65 11 51.7
23:30 1019 30.09 848 25.04 17.7 63.9 66 11.3 52.3
23:35 1019 30.09 848 25.04 17.7 63.9 64 10.8 51.5
23:40 1019 30.09 848 25.04 17.9 64.2 63 10.8 51.5
23:45 1019 30.09 848 25.04 17.9 64.3 66 11.7 53
23:50 1019 30.09 848 25.04 17.7 63.9 73 12.9 55.1
23:55 1019 30.09 848 25.04 17.4 63.2 68 11.6 52.8
24:00 1019 30.09 848 25.04 17.1 62.8 70 11.6 52.9